sensor_id;sensor_type;location;lat;lon;timestamp;temperature;humidity
578;DHT22;275;48.492;9.214;2024-03-06T00:00:48;11.30;28.80
578;DHT22;275;48.492;9.214;2024-03-06T00:03:15;11.30;28.90
578;DHT22;275;48.492;9.214;2024-03-06T00:05:43;11.30;29.20
578;DHT22;275;48.492;9.214;2024-03-06T00:08:10;11.40;29.10
578;DHT22;275;48.492;9.214;2024-03-06T00:10:37;11.20;29.70
578;DHT22;275;48.492;9.214;2024-03-06T00:13:04;11.00;30.30
578;DHT22;275;48.492;9.214;2024-03-06T00:15:30;11.10;29.50
578;DHT22;275;48.492;9.214;2024-03-06T00:17:57;11.20;29.70
578;DHT22;275;48.492;9.214;2024-03-06T00:20:25;11.00;30.00
578;DHT22;275;48.492;9.214;2024-03-06T00:22:55;11.30;29.60
578;DHT22;275;48.492;9.214;2024-03-06T00:25:21;11.30;29.50
578;DHT22;275;48.492;9.214;2024-03-06T00:27:48;11.30;29.40
578;DHT22;275;48.492;9.214;2024-03-06T00:30:15;11.10;30.10
578;DHT22;275;48.492;9.214;2024-03-06T00:32:42;11.10;30.10
578;DHT22;275;48.492;9.214;2024-03-06T00:35:09;11.10;30.10
578;DHT22;275;48.492;9.214;2024-03-06T00:37:37;11.20;30.20
578;DHT22;275;48.492;9.214;2024-03-06T00:40:07;11.20;30.30
578;DHT22;275;48.492;9.214;2024-03-06T00:42:34;10.90;30.50
578;DHT22;275;48.492;9.214;2024-03-06T00:45:01;10.90;30.90
578;DHT22;275;48.492;9.214;2024-03-06T00:47:28;11.00;31.00
578;DHT22;275;48.492;9.214;2024-03-06T00:49:55;10.90;30.90
578;DHT22;275;48.492;9.214;2024-03-06T00:52:22;10.90;30.80
578;DHT22;275;48.492;9.214;2024-03-06T00:54:49;10.90;31.20
578;DHT22;275;48.492;9.214;2024-03-06T00:57:17;10.90;31.00
578;DHT22;275;48.492;9.214;2024-03-06T00:59:44;11.20;30.40
578;DHT22;275;48.492;9.214;2024-03-06T01:02:10;11.20;30.80
578;DHT22;275;48.492;9.214;2024-03-06T01:04:37;11.20;30.60
578;DHT22;275;48.492;9.214;2024-03-06T01:07:04;10.90;31.80
578;DHT22;275;48.492;9.214;2024-03-06T01:09:31;11.00;31.30
578;DHT22;275;48.492;9.214;2024-03-06T01:11:57;10.90;31.50
578;DHT22;275;48.492;9.214;2024-03-06T01:14:25;10.90;31.50
578;DHT22;275;48.492;9.214;2024-03-06T01:16:52;11.00;31.50
578;DHT22;275;48.492;9.214;2024-03-06T01:19:19;11.20;31.00
578;DHT22;275;48.492;9.214;2024-03-06T01:21:46;11.00;30.90
578;DHT22;275;48.492;9.214;2024-03-06T01:24:14;10.90;31.40
578;DHT22;275;48.492;9.214;2024-03-06T01:26:40;11.10;32.10
578;DHT22;275;48.492;9.214;2024-03-06T01:29:07;11.20;32.00
578;DHT22;275;48.492;9.214;2024-03-06T01:31:35;10.90;33.00
578;DHT22;275;48.492;9.214;2024-03-06T01:34:02;11.00;32.90
578;DHT22;275;48.492;9.214;2024-03-06T01:36:29;11.00;33.40
578;DHT22;275;48.492;9.214;2024-03-06T01:38:56;10.50;34.50
578;DHT22;275;48.492;9.214;2024-03-06T01:41:23;10.60;34.20
578;DHT22;275;48.492;9.214;2024-03-06T01:43:50;10.60;34.10
578;DHT22;275;48.492;9.214;2024-03-06T01:46:17;10.50;34.30
578;DHT22;275;48.492;9.214;2024-03-06T01:48:46;10.70;33.90
578;DHT22;275;48.492;9.214;2024-03-06T01:51:12;10.70;33.50
578;DHT22;275;48.492;9.214;2024-03-06T01:53:40;10.60;33.70
578;DHT22;275;48.492;9.214;2024-03-06T01:56:07;10.60;34.00
578;DHT22;275;48.492;9.214;2024-03-06T01:58:38;10.80;33.60
578;DHT22;275;48.492;9.214;2024-03-06T02:01:06;10.70;33.90
578;DHT22;275;48.492;9.214;2024-03-06T02:03:33;10.90;33.40
578;DHT22;275;48.492;9.214;2024-03-06T02:06:02;11.20;33.00
578;DHT22;275;48.492;9.214;2024-03-06T02:08:29;11.00;33.40
578;DHT22;275;48.492;9.214;2024-03-06T02:10:56;10.80;33.70
578;DHT22;275;48.492;9.214;2024-03-06T02:13:23;10.70;34.20
578;DHT22;275;48.492;9.214;2024-03-06T02:15:50;11.00;33.50
578;DHT22;275;48.492;9.214;2024-03-06T02:18:17;11.00;32.90
578;DHT22;275;48.492;9.214;2024-03-06T02:20:45;10.50;34.50
578;DHT22;275;48.492;9.214;2024-03-06T02:23:12;10.50;35.00
578;DHT22;275;48.492;9.214;2024-03-06T02:25:40;10.30;35.80
578;DHT22;275;48.492;9.214;2024-03-06T02:28:07;10.40;36.00
578;DHT22;275;48.492;9.214;2024-03-06T02:30:34;10.70;35.00
578;DHT22;275;48.492;9.214;2024-03-06T02:33:02;10.70;34.80
578;DHT22;275;48.492;9.214;2024-03-06T02:35:29;10.60;34.80
578;DHT22;275;48.492;9.214;2024-03-06T02:37:59;10.10;36.50
578;DHT22;275;48.492;9.214;2024-03-06T02:40:26;10.40;36.00
578;DHT22;275;48.492;9.214;2024-03-06T02:42:53;10.70;34.80
578;DHT22;275;48.492;9.214;2024-03-06T02:45:20;10.30;35.20
578;DHT22;275;48.492;9.214;2024-03-06T02:47:46;9.40;39.20
578;DHT22;275;48.492;9.214;2024-03-06T02:50:13;9.50;39.10
578;DHT22;275;48.492;9.214;2024-03-06T02:52:40;9.70;38.40
578;DHT22;275;48.492;9.214;2024-03-06T02:55:09;9.90;37.70
578;DHT22;275;48.492;9.214;2024-03-06T02:57:36;10.00;36.50
578;DHT22;275;48.492;9.214;2024-03-06T03:00:04;10.30;35.50
578;DHT22;275;48.492;9.214;2024-03-06T03:02:34;10.60;34.30
578;DHT22;275;48.492;9.214;2024-03-06T03:05:01;10.60;34.30
578;DHT22;275;48.492;9.214;2024-03-06T03:07:28;10.30;34.50
578;DHT22;275;48.492;9.214;2024-03-06T03:09:55;10.20;35.20
578;DHT22;275;48.492;9.214;2024-03-06T03:12:23;10.40;34.20
578;DHT22;275;48.492;9.214;2024-03-06T03:14:50;10.40;34.40
578;DHT22;275;48.492;9.214;2024-03-06T03:17:17;10.40;34.60
578;DHT22;275;48.492;9.214;2024-03-06T03:19:45;10.50;34.00
578;DHT22;275;48.492;9.214;2024-03-06T03:22:11;10.70;33.60
578;DHT22;275;48.492;9.214;2024-03-06T03:24:38;10.70;33.40
578;DHT22;275;48.492;9.214;2024-03-06T03:27:05;10.70;33.70
578;DHT22;275;48.492;9.214;2024-03-06T03:29:34;10.30;34.70
578;DHT22;275;48.492;9.214;2024-03-06T03:32:01;10.30;35.40
578;DHT22;275;48.492;9.214;2024-03-06T03:34:28;10.20;35.60
578;DHT22;275;48.492;9.214;2024-03-06T03:36:55;10.30;35.40
578;DHT22;275;48.492;9.214;2024-03-06T03:39:22;10.50;35.20
578;DHT22;275;48.492;9.214;2024-03-06T03:41:50;10.50;34.60
578;DHT22;275;48.492;9.214;2024-03-06T03:44:17;10.40;35.10
578;DHT22;275;48.492;9.214;2024-03-06T03:46:46;10.30;35.20
578;DHT22;275;48.492;9.214;2024-03-06T03:49:13;10.40;35.20
578;DHT22;275;48.492;9.214;2024-03-06T03:51:40;10.70;34.50
578;DHT22;275;48.492;9.214;2024-03-06T03:54:07;10.70;34.30
578;DHT22;275;48.492;9.214;2024-03-06T03:56:35;10.90;33.70
578;DHT22;275;48.492;9.214;2024-03-06T03:59:01;10.90;33.50
578;DHT22;275;48.492;9.214;2024-03-06T04:01:28;11.10;32.90
578;DHT22;275;48.492;9.214;2024-03-06T04:03:56;11.10;32.90
578;DHT22;275;48.492;9.214;2024-03-06T04:06:23;11.00;33.70
578;DHT22;275;48.492;9.214;2024-03-06T04:08:50;11.00;33.20
578;DHT22;275;48.492;9.214;2024-03-06T04:11:17;10.90;33.50
578;DHT22;275;48.492;9.214;2024-03-06T04:13:44;10.90;33.30
578;DHT22;275;48.492;9.214;2024-03-06T04:16:15;10.90;33.00
578;DHT22;275;48.492;9.214;2024-03-06T04:18:42;10.80;33.10
578;DHT22;275;48.492;9.214;2024-03-06T04:21:10;10.80;33.20
578;DHT22;275;48.492;9.214;2024-03-06T04:23:37;10.90;33.90
578;DHT22;275;48.492;9.214;2024-03-06T04:26:04;10.70;33.60
578;DHT22;275;48.492;9.214;2024-03-06T04:28:31;10.80;33.50
578;DHT22;275;48.492;9.214;2024-03-06T04:30:58;10.80;33.30
578;DHT22;275;48.492;9.214;2024-03-06T04:33:25;10.80;33.30
578;DHT22;275;48.492;9.214;2024-03-06T04:35:52;10.70;34.00
578;DHT22;275;48.492;9.214;2024-03-06T04:38:20;10.70;33.30
578;DHT22;275;48.492;9.214;2024-03-06T04:40:46;10.60;33.10
578;DHT22;275;48.492;9.214;2024-03-06T04:43:13;10.50;33.50
578;DHT22;275;48.492;9.214;2024-03-06T04:45:40;10.20;33.90
578;DHT22;275;48.492;9.214;2024-03-06T04:48:07;9.70;37.10
578;DHT22;275;48.492;9.214;2024-03-06T04:50:34;9.90;36.50
578;DHT22;275;48.492;9.214;2024-03-06T04:53:01;10.20;34.40
578;DHT22;275;48.492;9.214;2024-03-06T04:55:29;10.30;34.30
578;DHT22;275;48.492;9.214;2024-03-06T04:57:56;10.30;34.60
578;DHT22;275;48.492;9.214;2024-03-06T05:00:23;10.40;34.30
578;DHT22;275;48.492;9.214;2024-03-06T05:02:50;10.60;33.60
578;DHT22;275;48.492;9.214;2024-03-06T05:05:17;10.50;34.10
578;DHT22;275;48.492;9.214;2024-03-06T05:07:44;10.50;33.80
578;DHT22;275;48.492;9.214;2024-03-06T05:10:11;10.50;33.80
578;DHT22;275;48.492;9.214;2024-03-06T05:12:39;10.50;34.10
578;DHT22;275;48.492;9.214;2024-03-06T05:15:06;10.70;33.60
578;DHT22;275;48.492;9.214;2024-03-06T05:17:33;10.70;33.80
578;DHT22;275;48.492;9.214;2024-03-06T05:20:00;10.50;34.10
578;DHT22;275;48.492;9.214;2024-03-06T05:22:29;10.50;34.20
578;DHT22;275;48.492;9.214;2024-03-06T05:24:56;10.50;34.00
578;DHT22;275;48.492;9.214;2024-03-06T05:27:23;10.40;34.10
578;DHT22;275;48.492;9.214;2024-03-06T05:29:52;10.30;34.90
578;DHT22;275;48.492;9.214;2024-03-06T05:32:18;10.50;34.70
578;DHT22;275;48.492;9.214;2024-03-06T05:34:45;10.50;34.30
578;DHT22;275;48.492;9.214;2024-03-06T05:37:12;10.60;34.30
578;DHT22;275;48.492;9.214;2024-03-06T05:39:39;10.60;34.10
578;DHT22;275;48.492;9.214;2024-03-06T05:42:07;10.40;34.40
578;DHT22;275;48.492;9.214;2024-03-06T05:44:34;10.60;34.40
578;DHT22;275;48.492;9.214;2024-03-06T05:47:03;10.30;34.90
578;DHT22;275;48.492;9.214;2024-03-06T05:49:30;10.40;35.20
578;DHT22;275;48.492;9.214;2024-03-06T05:51:58;10.40;35.20
578;DHT22;275;48.492;9.214;2024-03-06T05:54:25;10.40;35.00
578;DHT22;275;48.492;9.214;2024-03-06T05:56:53;10.10;35.20
578;DHT22;275;48.492;9.214;2024-03-06T05:59:20;10.20;34.80
578;DHT22;275;48.492;9.214;2024-03-06T06:01:49;10.20;35.00
578;DHT22;275;48.492;9.214;2024-03-06T06:04:17;10.40;35.10
578;DHT22;275;48.492;9.214;2024-03-06T06:06:44;10.20;35.30
578;DHT22;275;48.492;9.214;2024-03-06T06:09:11;9.40;38.20
578;DHT22;275;48.492;9.214;2024-03-06T06:11:41;9.20;40.10
578;DHT22;275;48.492;9.214;2024-03-06T06:14:08;9.10;40.30
578;DHT22;275;48.492;9.214;2024-03-06T06:16:36;9.30;38.90
578;DHT22;275;48.492;9.214;2024-03-06T06:19:03;9.20;40.00
578;DHT22;275;48.492;9.214;2024-03-06T06:21:32;9.70;38.60
578;DHT22;275;48.492;9.214;2024-03-06T06:24:01;9.80;38.00
578;DHT22;275;48.492;9.214;2024-03-06T06:26:29;10.00;36.10
578;DHT22;275;48.492;9.214;2024-03-06T06:28:56;9.90;36.90
578;DHT22;275;48.492;9.214;2024-03-06T06:31:23;9.90;37.00
578;DHT22;275;48.492;9.214;2024-03-06T06:33:51;10.10;35.70
578;DHT22;275;48.492;9.214;2024-03-06T06:36:18;10.10;35.50
578;DHT22;275;48.492;9.214;2024-03-06T06:38:46;10.20;35.00
578;DHT22;275;48.492;9.214;2024-03-06T06:41:13;10.10;35.70
578;DHT22;275;48.492;9.214;2024-03-06T06:43:40;10.20;35.60
578;DHT22;275;48.492;9.214;2024-03-06T06:46:07;10.20;35.20
578;DHT22;275;48.492;9.214;2024-03-06T06:48:34;10.30;35.00
578;DHT22;275;48.492;9.214;2024-03-06T06:51:01;9.80;37.20
578;DHT22;275;48.492;9.214;2024-03-06T06:53:28;10.00;35.90
578;DHT22;275;48.492;9.214;2024-03-06T06:55:57;9.70;37.20
578;DHT22;275;48.492;9.214;2024-03-06T06:58:23;9.90;37.30
578;DHT22;275;48.492;9.214;2024-03-06T07:00:52;10.20;35.70
578;DHT22;275;48.492;9.214;2024-03-06T07:03:19;10.10;36.80
578;DHT22;275;48.492;9.214;2024-03-06T07:05:48;10.30;35.90
578;DHT22;275;48.492;9.214;2024-03-06T07:08:15;10.20;35.70
578;DHT22;275;48.492;9.214;2024-03-06T07:10:42;10.10;36.00
578;DHT22;275;48.492;9.214;2024-03-06T07:13:10;10.00;36.30
578;DHT22;275;48.492;9.214;2024-03-06T07:15:37;9.80;37.60
578;DHT22;275;48.492;9.214;2024-03-06T07:18:04;9.70;38.10
578;DHT22;275;48.492;9.214;2024-03-06T07:20:31;9.70;38.40
578;DHT22;275;48.492;9.214;2024-03-06T07:22:58;9.40;38.60
578;DHT22;275;48.492;9.214;2024-03-06T07:25:25;9.10;40.60
578;DHT22;275;48.492;9.214;2024-03-06T07:27:51;9.40;39.10
578;DHT22;275;48.492;9.214;2024-03-06T07:30:20;9.70;38.50
578;DHT22;275;48.492;9.214;2024-03-06T07:32:47;9.60;38.20
578;DHT22;275;48.492;9.214;2024-03-06T07:35:14;9.50;39.60
578;DHT22;275;48.492;9.214;2024-03-06T07:37:43;9.60;39.50
578;DHT22;275;48.492;9.214;2024-03-06T07:40:10;9.80;39.00
578;DHT22;275;48.492;9.214;2024-03-06T07:42:37;9.80;38.30
578;DHT22;275;48.492;9.214;2024-03-06T07:45:05;9.90;38.00
578;DHT22;275;48.492;9.214;2024-03-06T07:47:34;10.30;36.00
578;DHT22;275;48.492;9.214;2024-03-06T07:50:03;10.10;35.90
578;DHT22;275;48.492;9.214;2024-03-06T07:52:31;10.10;36.80
578;DHT22;275;48.492;9.214;2024-03-06T07:54:58;10.60;35.20
578;DHT22;275;48.492;9.214;2024-03-06T07:57:25;10.70;34.70
578;DHT22;275;48.492;9.214;2024-03-06T07:59:52;10.60;34.40
578;DHT22;275;48.492;9.214;2024-03-06T08:02:20;10.80;33.80
578;DHT22;275;48.492;9.214;2024-03-06T08:04:48;10.90;33.90
578;DHT22;275;48.492;9.214;2024-03-06T08:07:15;10.90;34.10
578;DHT22;275;48.492;9.214;2024-03-06T08:09:42;10.50;34.60
578;DHT22;275;48.492;9.214;2024-03-06T08:12:08;9.80;38.60
578;DHT22;275;48.492;9.214;2024-03-06T08:14:35;10.10;36.80
578;DHT22;275;48.492;9.214;2024-03-06T08:17:02;10.30;36.30
578;DHT22;275;48.492;9.214;2024-03-06T08:19:29;10.40;36.20
578;DHT22;275;48.492;9.214;2024-03-06T08:21:57;10.30;36.00
578;DHT22;275;48.492;9.214;2024-03-06T08:24:24;10.30;35.70
578;DHT22;275;48.492;9.214;2024-03-06T08:26:51;9.90;38.30
578;DHT22;275;48.492;9.214;2024-03-06T08:29:18;10.10;36.90
578;DHT22;275;48.492;9.214;2024-03-06T08:31:44;10.30;35.90
578;DHT22;275;48.492;9.214;2024-03-06T08:34:11;10.40;35.40
578;DHT22;275;48.492;9.214;2024-03-06T08:36:38;10.50;35.20
578;DHT22;275;48.492;9.214;2024-03-06T08:39:06;10.60;35.00
578;DHT22;275;48.492;9.214;2024-03-06T08:41:38;10.60;35.40
578;DHT22;275;48.492;9.214;2024-03-06T08:44:04;10.70;35.10
578;DHT22;275;48.492;9.214;2024-03-06T08:46:31;10.90;34.60
578;DHT22;275;48.492;9.214;2024-03-06T08:48:58;10.80;34.80
578;DHT22;275;48.492;9.214;2024-03-06T08:51:26;10.60;35.30
578;DHT22;275;48.492;9.214;2024-03-06T08:53:53;10.60;35.70
578;DHT22;275;48.492;9.214;2024-03-06T08:56:21;10.60;35.70
578;DHT22;275;48.492;9.214;2024-03-06T08:58:48;10.90;35.10
578;DHT22;275;48.492;9.214;2024-03-06T09:01:14;11.00;35.00
578;DHT22;275;48.492;9.214;2024-03-06T09:03:42;10.70;35.80
578;DHT22;275;48.492;9.214;2024-03-06T09:06:09;10.80;35.50
578;DHT22;275;48.492;9.214;2024-03-06T09:08:36;10.70;35.60
578;DHT22;275;48.492;9.214;2024-03-06T09:11:03;10.70;36.10
578;DHT22;275;48.492;9.214;2024-03-06T09:13:31;10.90;35.60
578;DHT22;275;48.492;9.214;2024-03-06T09:15:58;11.10;35.20
578;DHT22;275;48.492;9.214;2024-03-06T09:18:25;10.40;36.80
578;DHT22;275;48.492;9.214;2024-03-06T09:20:52;10.50;37.30
578;DHT22;275;48.492;9.214;2024-03-06T09:23:19;10.80;36.90
578;DHT22;275;48.492;9.214;2024-03-06T09:25:46;10.80;36.30
578;DHT22;275;48.492;9.214;2024-03-06T09:28:13;10.70;36.40
578;DHT22;275;48.492;9.214;2024-03-06T09:30:42;10.60;38.00
578;DHT22;275;48.492;9.214;2024-03-06T09:33:08;10.80;37.00
578;DHT22;275;48.492;9.214;2024-03-06T09:35:35;10.90;36.50
578;DHT22;275;48.492;9.214;2024-03-06T09:38:02;10.70;38.00
578;DHT22;275;48.492;9.214;2024-03-06T09:40:29;10.80;36.50
578;DHT22;275;48.492;9.214;2024-03-06T09:42:56;11.00;36.20
578;DHT22;275;48.492;9.214;2024-03-06T09:45:24;10.90;36.70
578;DHT22;275;48.492;9.214;2024-03-06T09:47:52;10.90;37.10
578;DHT22;275;48.492;9.214;2024-03-06T09:50:23;10.50;38.00
578;DHT22;275;48.492;9.214;2024-03-06T09:52:51;10.60;37.90
578;DHT22;275;48.492;9.214;2024-03-06T09:55:20;10.70;37.80
578;DHT22;275;48.492;9.214;2024-03-06T09:57:47;10.70;37.50
578;DHT22;275;48.492;9.214;2024-03-06T10:00:14;10.80;37.60
578;DHT22;275;48.492;9.214;2024-03-06T10:02:48;11.00;36.70
578;DHT22;275;48.492;9.214;2024-03-06T10:05:24;10.80;36.80
578;DHT22;275;48.492;9.214;2024-03-06T10:07:53;10.80;37.20
578;DHT22;275;48.492;9.214;2024-03-06T10:10:20;10.70;37.50
578;DHT22;275;48.492;9.214;2024-03-06T10:12:49;10.70;38.00
578;DHT22;275;48.492;9.214;2024-03-06T10:15:16;10.90;37.20
578;DHT22;275;48.492;9.214;2024-03-06T10:17:43;10.70;37.80
578;DHT22;275;48.492;9.214;2024-03-06T10:20:17;10.80;37.30
578;DHT22;275;48.492;9.214;2024-03-06T10:22:49;10.90;36.70
578;DHT22;275;48.492;9.214;2024-03-06T10:25:18;10.90;36.50
578;DHT22;275;48.492;9.214;2024-03-06T10:27:45;10.60;37.70
578;DHT22;275;48.492;9.214;2024-03-06T10:30:13;10.40;38.50
578;DHT22;275;48.492;9.214;2024-03-06T10:32:42;10.50;38.30
578;DHT22;275;48.492;9.214;2024-03-06T10:35:18;10.60;38.30
578;DHT22;275;48.492;9.214;2024-03-06T10:37:47;10.20;39.20
578;DHT22;275;48.492;9.214;2024-03-06T10:40:15;10.30;39.70
578;DHT22;275;48.492;9.214;2024-03-06T10:42:45;10.10;40.30
578;DHT22;275;48.492;9.214;2024-03-06T10:45:13;10.30;40.20
578;DHT22;275;48.492;9.214;2024-03-06T10:47:41;10.70;39.40
578;DHT22;275;48.492;9.214;2024-03-06T10:50:14;10.70;38.70
578;DHT22;275;48.492;9.214;2024-03-06T10:52:42;10.60;39.00
578;DHT22;275;48.492;9.214;2024-03-06T10:55:11;10.40;38.70
578;DHT22;275;48.492;9.214;2024-03-06T10:57:40;10.30;39.40
578;DHT22;275;48.492;9.214;2024-03-06T11:00:08;10.50;38.50
578;DHT22;275;48.492;9.214;2024-03-06T11:02:37;10.50;39.20
578;DHT22;275;48.492;9.214;2024-03-06T11:05:06;10.30;40.30
578;DHT22;275;48.492;9.214;2024-03-06T11:07:34;10.50;39.90
578;DHT22;275;48.492;9.214;2024-03-06T11:10:01;10.60;39.10
578;DHT22;275;48.492;9.214;2024-03-06T11:12:37;10.50;39.80
578;DHT22;275;48.492;9.214;2024-03-06T11:15:13;10.40;40.10
578;DHT22;275;48.492;9.214;2024-03-06T11:17:40;10.30;39.60
578;DHT22;275;48.492;9.214;2024-03-06T11:20:16;10.50;39.60
578;DHT22;275;48.492;9.214;2024-03-06T11:23:02;11.10;38.40
578;DHT22;275;48.492;9.214;2024-03-06T11:26:00;11.00;37.50
578;DHT22;275;48.492;9.214;2024-03-06T11:28:30;10.90;38.30
578;DHT22;275;48.492;9.214;2024-03-06T11:30:57;10.60;39.30
578;DHT22;275;48.492;9.214;2024-03-06T11:33:34;10.60;39.20
578;DHT22;275;48.492;9.214;2024-03-06T11:36:20;10.60;40.00
578;DHT22;275;48.492;9.214;2024-03-06T11:38:48;10.70;39.70
578;DHT22;275;48.492;9.214;2024-03-06T11:41:18;10.60;39.70
578;DHT22;275;48.492;9.214;2024-03-06T11:43:48;10.30;40.20
578;DHT22;275;48.492;9.214;2024-03-06T11:46:16;9.50;43.80
578;DHT22;275;48.492;9.214;2024-03-06T11:48:43;10.00;42.20
578;DHT22;275;48.492;9.214;2024-03-06T11:51:10;10.30;41.90
578;DHT22;275;48.492;9.214;2024-03-06T11:53:37;10.60;40.40
578;DHT22;275;48.492;9.214;2024-03-06T11:56:07;10.50;40.00
578;DHT22;275;48.492;9.214;2024-03-06T11:58:34;10.30;40.90
578;DHT22;275;48.492;9.214;2024-03-06T12:01:02;10.30;40.90
578;DHT22;275;48.492;9.214;2024-03-06T12:03:30;10.00;41.80
578;DHT22;275;48.492;9.214;2024-03-06T12:05:58;9.90;43.80
578;DHT22;275;48.492;9.214;2024-03-06T12:08:25;10.40;41.80
578;DHT22;275;48.492;9.214;2024-03-06T12:10:52;10.70;39.60
578;DHT22;275;48.492;9.214;2024-03-06T12:13:20;11.10;38.40
578;DHT22;275;48.492;9.214;2024-03-06T12:15:48;10.80;39.10
578;DHT22;275;48.492;9.214;2024-03-06T12:18:18;10.90;38.10
578;DHT22;275;48.492;9.214;2024-03-06T12:20:45;11.00;38.60
578;DHT22;275;48.492;9.214;2024-03-06T12:23:19;10.90;38.00
578;DHT22;275;48.492;9.214;2024-03-06T12:25:48;10.90;38.60
578;DHT22;275;48.492;9.214;2024-03-06T12:28:15;10.90;37.00
578;DHT22;275;48.492;9.214;2024-03-06T12:30:43;11.00;37.40
578;DHT22;275;48.492;9.214;2024-03-06T12:33:10;10.80;37.80
578;DHT22;275;48.492;9.214;2024-03-06T12:35:44;10.60;38.80
578;DHT22;275;48.492;9.214;2024-03-06T12:38:14;10.00;40.60
578;DHT22;275;48.492;9.214;2024-03-06T12:40:41;10.10;40.50
578;DHT22;275;48.492;9.214;2024-03-06T12:43:08;9.90;42.00
578;DHT22;275;48.492;9.214;2024-03-06T12:45:36;10.30;40.30
578;DHT22;275;48.492;9.214;2024-03-06T12:48:03;10.20;40.80
578;DHT22;275;48.492;9.214;2024-03-06T12:50:31;10.50;39.80
578;DHT22;275;48.492;9.214;2024-03-06T12:53:00;10.80;38.10
578;DHT22;275;48.492;9.214;2024-03-06T12:55:26;10.80;38.40
578;DHT22;275;48.492;9.214;2024-03-06T12:57:53;10.60;39.60
578;DHT22;275;48.492;9.214;2024-03-06T13:00:20;10.40;39.60
578;DHT22;275;48.492;9.214;2024-03-06T13:02:47;10.10;40.40
578;DHT22;275;48.492;9.214;2024-03-06T13:05:14;10.80;39.20
578;DHT22;275;48.492;9.214;2024-03-06T13:07:42;11.40;37.70
578;DHT22;275;48.492;9.214;2024-03-06T13:10:11;11.40;34.70
578;DHT22;275;48.492;9.214;2024-03-06T13:12:38;10.80;38.50
578;DHT22;275;48.492;9.214;2024-03-06T13:15:05;10.70;38.90
578;DHT22;275;48.492;9.214;2024-03-06T13:17:33;11.00;37.80
578;DHT22;275;48.492;9.214;2024-03-06T13:20:00;10.90;37.60
578;DHT22;275;48.492;9.214;2024-03-06T13:22:27;10.90;37.40
578;DHT22;275;48.492;9.214;2024-03-06T13:24:54;10.60;37.50
578;DHT22;275;48.492;9.214;2024-03-06T13:27:24;10.40;39.70
578;DHT22;275;48.492;9.214;2024-03-06T13:29:50;10.60;38.50
578;DHT22;275;48.492;9.214;2024-03-06T13:32:17;10.70;39.00
578;DHT22;275;48.492;9.214;2024-03-06T13:34:44;11.00;38.30
578;DHT22;275;48.492;9.214;2024-03-06T13:37:11;11.10;38.10
578;DHT22;275;48.492;9.214;2024-03-06T13:39:38;11.40;38.20
578;DHT22;275;48.492;9.214;2024-03-06T13:42:06;11.60;35.90
578;DHT22;275;48.492;9.214;2024-03-06T13:44:35;11.40;36.20
578;DHT22;275;48.492;9.214;2024-03-06T13:47:04;11.20;37.10
578;DHT22;275;48.492;9.214;2024-03-06T13:49:35;10.80;37.40
578;DHT22;275;48.492;9.214;2024-03-06T13:52:03;10.90;38.30
578;DHT22;275;48.492;9.214;2024-03-06T13:54:32;11.00;37.60
578;DHT22;275;48.492;9.214;2024-03-06T13:57:00;10.90;37.00
578;DHT22;275;48.492;9.214;2024-03-06T13:59:28;10.50;38.30
578;DHT22;275;48.492;9.214;2024-03-06T14:01:57;10.80;38.60
578;DHT22;275;48.492;9.214;2024-03-06T14:04:25;11.00;37.70
578;DHT22;275;48.492;9.214;2024-03-06T14:06:52;10.70;39.60
578;DHT22;275;48.492;9.214;2024-03-06T14:09:19;11.10;38.20
578;DHT22;275;48.492;9.214;2024-03-06T14:11:49;11.30;38.00
578;DHT22;275;48.492;9.214;2024-03-06T14:14:15;11.00;37.30
578;DHT22;275;48.492;9.214;2024-03-06T14:16:43;11.00;37.60
578;DHT22;275;48.492;9.214;2024-03-06T14:19:11;11.20;37.50
578;DHT22;275;48.492;9.214;2024-03-06T14:21:39;11.30;37.60
578;DHT22;275;48.492;9.214;2024-03-06T14:24:06;11.50;36.90
578;DHT22;275;48.492;9.214;2024-03-06T14:26:33;11.50;36.50
578;DHT22;275;48.492;9.214;2024-03-06T14:29:01;11.40;36.80
578;DHT22;275;48.492;9.214;2024-03-06T14:31:28;11.40;36.90
578;DHT22;275;48.492;9.214;2024-03-06T14:33:55;11.10;37.50
578;DHT22;275;48.492;9.214;2024-03-06T14:36:23;11.10;38.00
578;DHT22;275;48.492;9.214;2024-03-06T14:38:50;11.20;37.50
578;DHT22;275;48.492;9.214;2024-03-06T14:41:18;11.10;37.40
578;DHT22;275;48.492;9.214;2024-03-06T14:43:45;11.10;37.70
578;DHT22;275;48.492;9.214;2024-03-06T14:46:12;11.00;37.60
578;DHT22;275;48.492;9.214;2024-03-06T14:48:39;11.20;37.60
578;DHT22;275;48.492;9.214;2024-03-06T14:51:07;11.10;37.60
578;DHT22;275;48.492;9.214;2024-03-06T14:53:35;11.10;38.20
578;DHT22;275;48.492;9.214;2024-03-06T14:56:03;11.20;38.50
578;DHT22;275;48.492;9.214;2024-03-06T14:58:30;11.40;37.40
578;DHT22;275;48.492;9.214;2024-03-06T15:00:57;11.40;37.10
578;DHT22;275;48.492;9.214;2024-03-06T15:03:23;11.40;37.00
578;DHT22;275;48.492;9.214;2024-03-06T15:05:50;11.40;36.70
578;DHT22;275;48.492;9.214;2024-03-06T15:08:18;11.50;36.60
578;DHT22;275;48.492;9.214;2024-03-06T15:10:46;11.60;36.20
578;DHT22;275;48.492;9.214;2024-03-06T15:13:13;11.40;36.70
578;DHT22;275;48.492;9.214;2024-03-06T15:15:41;11.10;38.10
578;DHT22;275;48.492;9.214;2024-03-06T15:18:08;11.10;38.20
578;DHT22;275;48.492;9.214;2024-03-06T15:20:35;11.20;37.70
578;DHT22;275;48.492;9.214;2024-03-06T15:23:02;11.00;38.10
578;DHT22;275;48.492;9.214;2024-03-06T15:25:29;11.10;37.80
578;DHT22;275;48.492;9.214;2024-03-06T15:27:57;11.30;38.00
578;DHT22;275;48.492;9.214;2024-03-06T15:30:24;11.30;38.20
578;DHT22;275;48.492;9.214;2024-03-06T15:32:52;11.40;37.70
578;DHT22;275;48.492;9.214;2024-03-06T15:35:19;11.40;37.70
578;DHT22;275;48.492;9.214;2024-03-06T15:37:46;11.00;38.60
578;DHT22;275;48.492;9.214;2024-03-06T15:40:14;10.80;40.10
578;DHT22;275;48.492;9.214;2024-03-06T15:42:40;10.70;40.10
578;DHT22;275;48.492;9.214;2024-03-06T15:45:11;10.80;40.30
578;DHT22;275;48.492;9.214;2024-03-06T15:47:38;11.10;39.50
578;DHT22;275;48.492;9.214;2024-03-06T15:50:08;11.10;39.40
578;DHT22;275;48.492;9.214;2024-03-06T15:52:36;11.20;38.60
578;DHT22;275;48.492;9.214;2024-03-06T15:55:04;11.40;38.20
578;DHT22;275;48.492;9.214;2024-03-06T15:57:31;11.30;38.30
578;DHT22;275;48.492;9.214;2024-03-06T15:59:58;11.40;38.40
578;DHT22;275;48.492;9.214;2024-03-06T16:02:26;11.60;37.80
578;DHT22;275;48.492;9.214;2024-03-06T16:04:53;11.70;37.70
578;DHT22;275;48.492;9.214;2024-03-06T16:07:20;11.80;37.20
578;DHT22;275;48.492;9.214;2024-03-06T16:09:47;11.60;37.50
578;DHT22;275;48.492;9.214;2024-03-06T16:12:16;11.60;38.40
578;DHT22;275;48.492;9.214;2024-03-06T16:14:43;11.70;37.70
578;DHT22;275;48.492;9.214;2024-03-06T16:17:10;11.60;38.00
578;DHT22;275;48.492;9.214;2024-03-06T16:19:39;11.40;38.50
578;DHT22;275;48.492;9.214;2024-03-06T16:22:06;11.40;38.20
578;DHT22;275;48.492;9.214;2024-03-06T16:24:33;11.30;38.50
578;DHT22;275;48.492;9.214;2024-03-06T16:27:00;11.30;38.90
578;DHT22;275;48.492;9.214;2024-03-06T16:29:27;11.30;39.20
578;DHT22;275;48.492;9.214;2024-03-06T16:31:55;11.20;39.70
578;DHT22;275;48.492;9.214;2024-03-06T16:34:23;11.40;38.50
578;DHT22;275;48.492;9.214;2024-03-06T16:36:51;11.20;39.70
578;DHT22;275;48.492;9.214;2024-03-06T16:39:18;11.40;39.50